Keechi, Texas
Current Conditions -  °F | °C
As of 1:35 PM on Friday 24 Oct 2014 (Local Time) from KLXY Reporting Station
Scattered Clouds Scattered Clouds  
Wind Chill: 76°   Ceiling: Unl
Heat Index: 78°   Visibility: 10mi
Dew Point: 58°   Wind: 0mph
Humidity: 53%   Direction: NA
Pressure: 30.14"   Gusts: NA
Location:  31.4723°N, 96.0615°W
Report Text: KLXY 241835Z AUTO 00000KT 10SM SCT002 25/14 A3014 RMK AO2 T02450144
Loading
Personal Weather Stations






























Interactive Weather Map
Tropical Storm Tracking
New forecast layout! Learn more

10-Day Weather Forecast

Advertisements
Track Severe Weather on mobile